Time;durP1;ratioP1;P1;durP2;ratioP2;P2;SDS_P1;SDS_P2;PMS_P1;PMS_P2;Temp;Humidity;BMP_temperature;BMP_pressure;BME280_temperature;BME280_humidity;BME280_pressure;Samples;Min_cycle;Max_cycle;Signal;HPM_P1;HPM_P2
2023/05/17 00:02:05;;;;;;;15.47;5.20;;;9.50;99.90;;;;;;5095850;28;20172;-67
2023/05/17 00:04:32;;;;;;;17.03;5.47;;;9.50;99.90;;;;;;5095828;28;20178;-68
2023/05/17 00:06:57;;;;;;;16.83;5.23;;;9.40;99.90;;;;;;5095444;28;20209;-66
2023/05/17 00:09:23;;;;;;;12.00;4.83;;;9.40;99.90;;;;;;5096032;28;20187;-66
2023/05/17 00:11:49;;;;;;;14.33;5.73;;;9.30;99.90;;;;;;5095712;28;20651;-65
2023/05/17 00:14:15;;;;;;;16.93;6.00;;;9.30;99.90;;;;;;5095871;28;20256;-67
2023/05/17 00:16:40;;;;;;;16.13;5.53;;;9.30;99.90;;;;;;5095569;28;20229;-67
2023/05/17 00:19:08;;;;;;;14.53;5.57;;;9.20;99.90;;;;;;5095889;28;20611;-67
2023/05/17 00:21:34;;;;;;;19.40;5.80;;;9.20;99.90;;;;;;5095535;28;20160;-67
2023/05/17 00:23:59;;;;;;;15.80;6.33;;;9.30;99.90;;;;;;5095682;28;20203;-67
2023/05/17 00:26:25;;;;;;;13.67;6.13;;;9.20;99.90;;;;;;5095603;28;20182;-67
2023/05/17 00:28:51;;;;;;;13.10;5.83;;;9.20;99.90;;;;;;5095482;28;20712;-66
2023/05/17 00:31:16;;;;;;;14.67;6.00;;;9.20;99.90;;;;;;5095027;28;20234;-66
2023/05/17 00:33:42;;;;;;;20.27;6.53;;;9.20;99.90;;;;;;5095481;28;20160;-66
2023/05/17 00:36:08;;;;;;;12.27;6.13;;;9.20;99.90;;;;;;5095072;28;20285;-66
2023/05/17 00:38:33;;;;;;;13.10;5.77;;;9.20;99.90;;;;;;5095264;28;20521;-65
2023/05/17 00:40:59;;;;;;;14.60;6.17;;;9.10;99.90;;;;;;5095437;28;20175;-67
2023/05/17 00:43:25;;;;;;;16.97;6.43;;;9.20;99.90;;;;;;5095186;28;20246;-67
2023/05/17 00:45:51;;;;;;;21.37;6.97;;;9.10;99.90;;;;;;5095088;28;20199;-67
2023/05/17 00:48:19;;;;;;;14.80;6.80;;;9.10;99.90;;;;;;5095210;28;20200;-67
2023/05/17 00:50:46;;;;;;;14.73;6.67;;;9.10;99.90;;;;;;5094859;28;20207;-67
2023/05/17 00:53:15;;;;;;;10.93;6.90;;;9.10;99.90;;;;;;5095177;28;20199;-67
2023/05/17 00:55:43;;;;;;;17.50;7.33;;;9.10;99.90;;;;;;5094894;28;20164;-66
2023/05/17 00:58:09;;;;;;;19.00;6.90;;;9.10;99.90;;;;;;5094912;28;20171;-67
2023/05/17 01:00:35;;;;;;;15.77;7.10;;;9.10;99.90;;;;;;5094901;28;20295;-66
2023/05/17 01:03:01;;;;;;;17.40;6.70;;;9.10;99.90;;;;;;5094831;28;20658;-66
2023/05/17 01:05:27;;;;;;;16.13;7.10;;;9.10;99.90;;;;;;5094483;28;20160;-66
2023/05/17 01:07:53;;;;;;;17.40;7.43;;;9.10;99.90;;;;;;5093458;28;20171;-67
2023/05/17 01:10:19;;;;;;;16.20;7.27;;;9.20;99.90;;;;;;5093593;28;20699;-66
2023/05/17 01:12:49;;;;;;;15.20;7.10;;;9.20;99.90;;;;;;5093357;28;20184;-67
2023/05/17 01:15:21;;;;;;;15.57;6.93;;;9.10;99.90;;;;;;5094743;28;20546;-67
2023/05/17 01:17:50;;;;;;;15.43;7.33;;;9.10;99.90;;;;;;5094764;28;20638;-67
2023/05/17 01:20:30;;;;;;;16.37;7.50;;;9.10;99.90;;;;;;5093096;28;20179;-67
2023/05/17 01:23:27;;;;;;;16.63;7.90;;;9.10;99.90;;;;;;5094685;28;20222;-67
2023/05/17 01:26:34;;;;;;;15.67;7.63;;;9.00;99.90;;;;;;5094479;28;20545;-67
2023/05/17 01:29:01;;;;;;;23.50;7.83;;;9.00;99.90;;;;;;5049594;28;20219;-67
2023/05/17 01:31:27;;;;;;;21.73;8.07;;;8.90;99.90;;;;;;5094162;28;20270;-67
2023/05/17 01:33:53;;;;;;;21.83;8.30;;;8.90;99.90;;;;;;5093978;28;20651;-67
2023/05/17 01:36:19;;;;;;;17.00;8.30;;;8.80;99.90;;;;;;5093025;28;20191;-67
2023/05/17 01:38:45;;;;;;;24.40;8.83;;;8.80;99.90;;;;;;5094144;28;20259;-67
2023/05/17 01:41:20;;;;;;;19.27;8.47;;;8.90;99.90;;;;;;5094364;28;20571;-67
2023/05/17 01:44:11;;;;;;;21.37;9.20;;;8.80;99.90;;;;;;5092897;28;20269;-67
2023/05/17 01:46:39;;;;;;;22.47;9.33;;;8.90;99.90;;;;;;5094215;28;20172;-67
2023/05/17 01:49:16;;;;;;;20.47;8.83;;;8.90;99.90;;;;;;5092398;28;20175;-67
2023/05/17 01:51:52;;;;;;;21.80;10.17;;;8.80;99.90;;;;;;5093901;28;20203;-67
2023/05/17 01:54:22;;;;;;;18.47;9.03;;;8.80;99.90;;;;;;5094070;28;20650;-67
2023/05/17 01:56:54;;;;;;;22.93;9.40;;;8.80;99.90;;;;;;5093864;28;20188;-67
2023/05/17 01:59:24;;;;;;;20.17;9.20;;;8.80;99.90;;;;;;5093980;28;20203;-67
2023/05/17 02:01:57;;;;;;;18.90;9.70;;;8.70;99.90;;;;;;5093780;28;20175;-66
2023/05/17 02:04:22;;;;;;;22.17;8.97;;;8.80;99.90;;;;;;5093544;28;20213;-66
2023/05/17 02:06:48;;;;;;;25.20;9.43;;;8.80;99.90;;;;;;5093804;28;20175;-66
2023/05/17 02:09:14;;;;;;;25.10;9.97;;;8.80;99.90;;;;;;5092434;28;20759;-66
2023/05/17 02:11:39;;;;;;;23.10;9.57;;;8.90;99.90;;;;;;5093697;28;20661;-67
2023/05/17 02:14:05;;;;;;;21.20;9.40;;;8.90;99.90;;;;;;5092313;28;20571;-65
2023/05/17 02:16:30;;;;;;;20.50;9.23;;;8.90;99.90;;;;;;5093449;28;20179;-66
2023/05/17 02:18:56;;;;;;;25.07;9.33;;;8.90;99.90;;;;;;5093152;28;20172;-66
2023/05/17 02:21:22;;;;;;;22.47;9.60;;;8.80;99.90;;;;;;5093293;28;20541;-66
2023/05/17 02:23:47;;;;;;;23.47;8.73;;;8.70;99.90;;;;;;5093401;28;20167;-66
2023/05/17 02:26:13;;;;;;;50.37;11.63;;;8.70;99.90;;;;;;5093417;28;20176;-66
2023/05/17 02:28:38;;;;;;;22.87;9.97;;;8.70;99.90;;;;;;5093425;28;20172;-66
2023/05/17 02:31:07;;;;;;;25.00;10.07;;;8.70;99.90;;;;;;5093101;28;20751;-66
2023/05/17 02:33:34;;;;;;;27.33;10.30;;;8.70;99.90;;;;;;5093008;28;20219;-66
2023/05/17 02:36:00;;;;;;;22.37;10.63;;;8.80;99.90;;;;;;5093279;28;20676;-66
2023/05/17 02:38:25;;;;;;;27.57;10.67;;;8.70;99.90;;;;;;5093147;28;20259;-66
2023/05/17 02:40:51;;;;;;;25.23;9.70;;;8.60;99.90;;;;;;5093062;28;20172;-66
2023/05/17 02:43:16;;;;;;;26.80;10.00;;;8.60;99.90;;;;;;5093277;28;20627;-66
2023/05/17 02:45:43;;;;;;;19.33;9.33;;;8.60;99.90;;;;;;5093113;28;20217;-66
2023/05/17 02:48:09;;;;;;;22.50;10.57;;;8.60;99.90;;;;;;5092755;28;20183;-67
2023/05/17 02:50:34;;;;;;;19.97;9.83;;;8.60;99.90;;;;;;5092935;28;20505;-67
2023/05/17 02:53:00;;;;;;;24.03;11.47;;;8.60;99.90;;;;;;5091887;28;20560;-66
2023/05/17 02:55:26;;;;;;;24.03;11.13;;;8.60;99.90;;;;;;5093246;28;20654;-66
2023/05/17 02:57:51;;;;;;;22.93;10.30;;;8.60;99.90;;;;;;5091619;28;20203;-66
2023/05/17 03:00:17;;;;;;;31.10;11.57;;;8.60;99.90;;;;;;5093231;28;20168;-66
2023/05/17 03:02:43;;;;;;;26.67;10.13;;;8.60;99.90;;;;;;5092805;28;20543;-66
2023/05/17 03:05:08;;;;;;;28.83;10.43;;;8.60;99.90;;;;;;5092877;28;20171;-68
2023/05/17 03:07:35;;;;;;;23.40;10.97;;;8.60;99.90;;;;;;5092947;28;20686;-67
2023/05/17 03:10:00;;;;;;;25.47;10.40;;;8.60;99.90;;;;;;5091598;28;20602;-66
2023/05/17 03:12:26;;;;;;;19.97;11.00;;;8.60;99.90;;;;;;5091672;28;20211;-66
2023/05/17 03:14:51;;;;;;;26.23;12.03;;;8.60;99.90;;;;;;5092476;28;20164;-66
2023/05/17 03:17:17;;;;;;;28.13;11.33;;;8.70;99.90;;;;;;5091359;28;20207;-66
2023/05/17 03:19:43;;;;;;;24.37;11.00;;;8.60;99.90;;;;;;5092217;28;20267;-67
2023/05/17 03:22:08;;;;;;;26.70;11.67;;;8.60;99.90;;;;;;5092555;28;20175;-67
2023/05/17 03:24:34;;;;;;;25.63;11.00;;;8.60;99.90;;;;;;5092728;28;20187;-67
2023/05/17 03:26:59;;;;;;;26.83;10.87;;;8.60;99.90;;;;;;5092693;28;20623;-67
2023/05/17 03:29:25;;;;;;;27.03;11.87;;;8.70;99.90;;;;;;5092690;28;20588;-67
2023/05/17 03:31:51;;;;;;;23.87;11.03;;;8.60;99.90;;;;;;5092028;28;20753;-67
2023/05/17 03:34:16;;;;;;;30.20;10.67;;;8.60;99.90;;;;;;5093989;28;20176;-67
2023/05/17 03:36:42;;;;;;;35.47;11.97;;;8.50;99.90;;;;;;5096068;28;20528;-67
2023/05/17 03:39:07;;;;;;;28.00;11.00;;;8.50;99.90;;;;;;5096138;28;20172;-67
2023/05/17 03:41:33;;;;;;;30.70;11.77;;;8.50;99.90;;;;;;5096224;28;20179;-66
2023/05/17 03:44:00;;;;;;;31.50;11.33;;;8.50;99.90;;;;;;5096433;28;20191;-67
2023/05/17 03:46:25;;;;;;;22.40;11.50;;;8.60;99.90;;;;;;5095472;28;20167;-66
2023/05/17 03:48:51;;;;;;;29.93;11.43;;;8.60;99.90;;;;;;5096082;28;20164;-69
2023/05/17 03:51:17;;;;;;;28.27;11.50;;;8.70;99.90;;;;;;5095228;28;20204;-67
2023/05/17 03:53:43;;;;;;;24.80;11.60;;;8.80;99.90;;;;;;5095796;28;20229;-67
2023/05/17 03:56:09;;;;;;;31.10;11.77;;;8.90;99.90;;;;;;5095920;28;20502;-67
2023/05/17 03:58:35;;;;;;;30.83;11.30;;;8.90;99.90;;;;;;5094270;28;20175;-68
2023/05/17 04:01:01;;;;;;;25.77;11.03;;;8.90;99.90;;;;;;5095633;28;20221;-67
2023/05/17 04:03:27;;;;;;;32.60;11.73;;;9.00;99.90;;;;;;5095735;28;20168;-67
2023/05/17 04:05:53;;;;;;;23.10;11.23;;;9.00;99.90;;;;;;5095092;28;20174;-67
2023/05/17 04:08:19;;;;;;;27.50;11.27;;;9.10;99.90;;;;;;5094212;28;20683;-68
2023/05/17 04:10:44;;;;;;;24.90;11.10;;;9.10;99.90;;;;;;5095298;28;20203;-68
2023/05/17 04:13:10;;;;;;;22.70;11.63;;;9.10;99.90;;;;;;5095662;28;20164;-66
2023/05/17 04:15:36;;;;;;;28.67;11.43;;;9.20;99.90;;;;;;5094730;28;20234;-66
2023/05/17 04:18:02;;;;;;;23.03;11.43;;;9.30;99.90;;;;;;5095544;28;20195;-68
2023/05/17 04:20:27;;;;;;;24.37;10.77;;;9.30;99.90;;;;;;5095584;28;20164;-67
2023/05/17 04:22:53;;;;;;;27.77;11.40;;;9.30;99.90;;;;;;5093822;28;20191;-69
2023/05/17 04:25:19;;;;;;;23.53;11.07;;;9.30;99.90;;;;;;5094171;28;20190;-68
2023/05/17 04:27:45;;;;;;;21.77;9.87;;;9.50;99.90;;;;;;5095333;28;20164;-67
2023/05/17 04:30:11;;;;;;;22.37;10.07;;;9.50;99.90;;;;;;5092901;28;20219;-68
2023/05/17 04:32:37;;;;;;;23.40;9.83;;;9.50;99.90;;;;;;5094719;28;20759;-68
2023/05/17 04:35:03;;;;;;;21.53;10.27;;;9.70;99.90;;;;;;5094956;28;20196;-67
2023/05/17 04:37:29;;;;;;;24.00;9.30;;;9.80;99.90;;;;;;5094996;28;20251;-68
2023/05/17 04:39:55;;;;;;;20.23;9.63;;;10.00;99.90;;;;;;5095315;28;20265;-68
2023/05/17 04:42:21;;;;;;;22.73;9.60;;;10.00;99.90;;;;;;5094288;28;20239;-68
2023/05/17 04:44:46;;;;;;;20.47;8.90;;;10.10;99.90;;;;;;5094569;28;20562;-68
2023/05/17 04:47:12;;;;;;;19.80;8.57;;;10.10;99.90;;;;;;5094817;28;20581;-67
2023/05/17 04:49:38;;;;;;;19.13;8.97;;;10.20;99.90;;;;;;5093094;28;20175;-68
2023/05/17 04:52:04;;;;;;;16.57;8.90;;;10.20;99.90;;;;;;5094284;28;20192;-68
2023/05/17 04:54:29;;;;;;;19.47;8.83;;;10.30;99.90;;;;;;5094244;28;20156;-67
2023/05/17 04:56:55;;;;;;;15.97;8.50;;;10.50;99.90;;;;;;5094391;28;20653;-68
2023/05/17 04:59:21;;;;;;;20.20;8.67;;;10.40;99.90;;;;;;5093801;28;20192;-68
2023/05/17 05:01:46;;;;;;;19.30;9.07;;;10.70;99.90;;;;;;5094078;28;20168;-69
2023/05/17 05:04:12;;;;;;;22.37;9.17;;;10.90;99.90;;;;;;5094137;28;20217;-67
2023/05/17 05:06:38;;;;;;;22.00;8.63;;;11.00;99.90;;;;;;5094154;28;20214;-67
2023/05/17 05:09:04;;;;;;;15.37;8.23;;;11.20;99.90;;;;;;5092341;28;20313;-68
2023/05/17 05:11:30;;;;;;;19.53;8.70;;;11.30;99.90;;;;;;5092007;28;20211;-67
2023/05/17 05:13:56;;;;;;;15.10;8.13;;;11.40;99.90;;;;;;5093885;28;20190;-67
2023/05/17 05:16:23;;;;;;;18.13;8.30;;;11.50;99.90;;;;;;5093270;28;20180;-67
2023/05/17 05:18:49;;;;;;;16.07;7.77;;;11.70;99.90;;;;;;5093270;28;20257;-68
2023/05/17 05:21:14;;;;;;;21.77;8.40;;;11.90;99.90;;;;;;5093672;28;20616;-68
2023/05/17 05:23:40;;;;;;;21.10;8.37;;;12.10;99.90;;;;;;5093515;28;20163;-67
2023/05/17 05:26:06;;;;;;;19.07;7.90;;;12.30;99.90;;;;;;5092283;28;20600;-69
2023/05/17 05:28:31;;;;;;;14.37;7.20;;;12.60;99.90;;;;;;5093754;28;20168;-69
2023/05/17 05:31:00;;;;;;;16.93;7.63;;;12.80;94.50;;;;;;5091831;28;20599;-69
2023/05/17 05:33:26;;;;;;;15.60;7.10;;;13.10;90.20;;;;;;5092546;28;20172;-69
2023/05/17 05:35:52;;;;;;;14.60;8.00;;;13.40;70.40;;;;;;5092954;28;20183;-68
2023/05/17 05:38:18;;;;;;;15.97;7.47;;;13.40;64.20;;;;;;5092658;28;20175;-67
2023/05/17 05:40:46;;;;;;;16.43;7.73;;;13.50;52.70;;;;;;5091922;28;20176;-68
2023/05/17 05:43:12;;;;;;;12.07;7.13;;;13.50;55.40;;;;;;5092709;28;20207;-68
2023/05/17 05:45:44;;;;;;;17.17;7.30;;;13.80;43.00;;;;;;5092716;28;20265;-69
2023/05/17 05:48:10;;;;;;;13.80;6.70;;;14.00;41.30;;;;;;5092345;28;20180;-69
2023/05/17 05:50:37;;;;;;;14.57;7.10;;;14.40;22.60;;;;;;5092632;28;20168;-68
2023/05/17 05:53:03;;;;;;;14.43;6.93;;;14.20;26.30;;;;;;5092485;28;20188;-70
2023/05/17 05:55:28;;;;;;;11.67;6.67;;;14.70;19.70;;;;;;5090592;28;20176;-68
2023/05/17 05:57:54;;;;;;;16.53;6.33;;;15.00;5.50;;;;;;5090676;28;20175;-68
2023/05/17 06:00:20;;;;;;;14.67;7.10;;;15.40;2.20;;;;;;5091218;28;20237;-69
2023/05/17 06:02:45;;;;;;;16.03;6.60;;;15.70;1.00;;;;;;5092638;28;20244;-69
2023/05/17 06:05:11;;;;;;;19.53;6.80;;;15.90;1.00;;;;;;5091198;28;20182;-69
2023/05/17 06:07:37;;;;;;;13.80;6.57;;;16.00;1.00;;;;;;5092543;28;20172;-68
2023/05/17 06:10:02;;;;;;;18.03;6.87;;;15.80;1.00;;;;;;5090380;28;20198;-69
2023/05/17 06:12:28;;;;;;;23.13;7.50;;;15.80;1.00;;;;;;5091113;28;20219;-69
2023/05/17 06:14:54;;;;;;;17.83;6.97;;;15.90;1.00;;;;;;5091759;28;20168;-68
2023/05/17 06:17:20;;;;;;;17.20;6.63;;;15.90;1.00;;;;;;5092527;28;20534;-68
2023/05/17 06:19:47;;;;;;;18.73;6.83;;;15.90;1.00;;;;;;5092478;28;20627;-68
2023/05/17 06:22:13;;;;;;;24.17;7.80;;;16.00;1.00;;;;;;5092213;28;20632;-67
2023/05/17 06:24:39;;;;;;;18.90;6.90;;;16.00;1.00;;;;;;5091900;28;20251;-69
2023/05/17 06:27:06;;;;;;;18.90;7.10;;;16.10;1.00;;;;;;5091938;28;20172;-67
2023/05/17 06:29:31;;;;;;;22.40;6.73;;;16.20;1.00;;;;;;5091871;28;20164;-69
2023/05/17 06:31:58;;;;;;;22.60;7.03;;;16.00;1.00;;;;;;5092542;28;20218;-69
2023/05/17 06:34:24;;;;;;;19.87;6.67;;;15.90;1.00;;;;;;5091710;28;20168;-68
2023/05/17 06:36:50;;;;;;;17.03;6.93;;;15.90;1.00;;;;;;5091928;28;20206;-69
2023/05/17 06:39:16;;;;;;;17.70;6.33;;;16.10;1.00;;;;;;5091182;28;20572;-70
2023/05/17 06:41:41;;;;;;;13.17;5.97;;;16.40;1.00;;;;;;5091964;28;20182;-69
2023/05/17 06:44:07;;;;;;;19.43;6.40;;;16.60;1.00;;;;;;5090570;28;20531;-69
2023/05/17 06:46:33;;;;;;;20.87;6.50;;;16.80;1.00;;;;;;5091989;28;20278;-69
2023/05/17 06:48:58;;;;;;;14.43;6.00;;;16.90;1.00;;;;;;5092005;28;20258;-71
2023/05/17 06:51:24;;;;;;;25.50;6.73;;;17.10;1.00;;;;;;5091919;28;20208;-71
2023/05/17 06:53:50;;;;;;;14.77;5.80;;;17.20;1.00;;;;;;5091553;28;20168;-70
2023/05/17 06:56:16;;;;;;;17.23;6.07;;;17.50;1.00;;;;;;5091726;28;20183;-70
2023/05/17 06:58:41;;;;;;;12.48;6.03;;;18.70;1.00;;;;;;5091712;28;20172;-70
2023/05/17 07:01:07;;;;;;;20.13;5.85;;;20.20;1.00;;;;;;5092116;28;20192;-70
2023/05/17 07:03:33;;;;;;;15.40;5.72;;;21.50;99.90;;;;;;5092100;28;20179;-70
2023/05/17 07:05:58;;;;;;;17.25;5.50;;;23.00;90.90;;;;;;5091763;28;20192;-68
2023/05/17 07:08:24;;;;;;;11.77;5.43;;;24.50;99.90;;;;;;5093410;28;20206;-69
2023/05/17 07:10:51;;;;;;;12.37;6.00;;;24.70;3.30;;;;;;5086399;28;20886;-69
2023/05/17 07:13:17;;;;;;;12.02;5.80;;;24.30;1.00;;;;;;5073701;28;20177;-70
2023/05/17 07:15:42;;;;;;;15.38;6.00;;;22.80;99.90;;;;;;5072872;28;20234;-69
2023/05/17 07:18:08;;;;;;;10.77;5.32;;;21.40;1.00;;;;;;5075925;28;20656;-68
2023/05/17 07:20:33;;;;;;;12.45;5.80;;;20.40;1.00;;;;;;5082670;28;20237;-66
2023/05/17 07:22:59;;;;;;;12.05;5.57;;;21.00;99.90;;;;;;5085352;28;20187;-69
2023/05/17 07:25:25;;;;;;;11.68;5.57;;;21.10;99.90;;;;;;5095567;28;20164;-71
2023/05/17 07:27:50;;;;;;;14.98;6.00;;;21.30;1.00;;;;;;5095217;28;20305;-67
2023/05/17 07:30:16;;;;;;;12.57;4.97;;;21.60;1.00;;;;;;5090723;28;20219;-71
2023/05/17 07:32:42;;;;;;;8.75;4.80;;;21.10;1.00;;;;;;5107536;28;20283;-71
2023/05/17 07:35:08;;;;;;;16.30;5.85;;;20.40;99.90;;;;;;5116057;28;20171;-73
2023/05/17 07:37:34;;;;;;;11.52;5.40;;;20.40;99.90;;;;;;5116073;28;20610;-69
2023/05/17 07:40:00;;;;;;;16.92;6.28;;;21.50;1.00;;;;;;5115144;28;20179;-73
2023/05/17 07:42:26;;;;;;;14.82;6.13;;;21.10;82.30;;;;;;5115776;28;20243;-71
2023/05/17 07:44:51;;;;;;;13.27;5.72;;;21.90;99.90;;;;;;5113381;28;20175;-73
2023/05/17 07:47:17;;;;;;;13.52;5.93;;;23.30;82.70;;;;;;5115341;28;20641;-76
2023/05/17 07:49:43;;;;;;;10.48;6.35;;;23.40;99.90;;;;;;5114681;28;20167;-72
2023/05/17 07:52:08;;;;;;;18.40;7.85;;;22.80;1.00;;;;;;5113832;28;20254;-73
2023/05/17 07:54:34;;;;;;;12.63;6.20;;;22.30;1.00;;;;;;5104215;28;20300;-72
2023/05/17 07:57:00;;;;;;;14.15;5.85;;;23.30;1.00;;;;;;5094627;28;20172;-71
2023/05/17 07:59:25;;;;;;;13.35;6.20;;;23.60;1.00;;;;;;5081397;28;20172;-71
2023/05/17 08:01:51;;;;;;;18.35;7.00;;;23.60;1.00;;;;;;5092428;28;20172;-71
2023/05/17 08:04:22;;;;;;;11.50;6.05;;;24.70;7.80;;;;;;5094557;28;20229;-71
2023/05/17 08:06:48;;;;;;;8.25;5.28;;;25.80;95.10;;;;;;5094430;28;20186;-72
2023/05/17 08:09:15;;;;;;;10.98;6.03;;;24.40;99.90;;;;;;5094737;28;20527;-69
2023/05/17 08:11:47;;;;;;;11.82;6.13;;;22.60;99.90;;;;;;5094624;28;20226;-71
2023/05/17 08:14:14;;;;;;;10.65;5.50;;;21.10;99.90;;;;;;5094165;28;20176;-68
2023/05/17 08:16:41;;;;;;;8.65;4.93;;;20.80;99.90;;;;;;5094300;28;20611;-69
2023/05/17 08:19:15;;;;;;;11.00;5.90;;;20.50;99.90;;;;;;5094055;28;20164;-67
2023/05/17 08:21:41;;;;;;;9.55;6.25;;;20.10;1.00;;;;;;5093584;28;20218;-68
2023/05/17 08:24:07;;;;;;;9.43;5.38;;;20.20;99.90;;;;;;5092755;28;20217;-68
2023/05/17 08:26:34;;;;;;;8.70;6.32;;;19.70;1.00;;;;;;5099951;28;20176;-69
2023/05/17 08:29:01;;;;;;;10.07;5.35;;;19.70;99.90;;;;;;5114936;28;20167;-72
2023/05/17 08:31:27;;;;;;;9.50;5.97;;;20.80;99.90;;;;;;5115093;28;20259;-69
2023/05/17 08:33:53;;;;;;;13.40;6.00;;;21.10;99.90;;;;;;5112921;28;20342;-71
2023/05/17 08:36:19;;;;;;;9.75;5.50;;;21.00;1.00;;;;;;5114634;28;20710;-71
2023/05/17 08:38:45;;;;;;;10.63;6.15;;;20.50;1.00;;;;;;5113083;28;20312;-67
2023/05/17 08:41:12;;;;;;;11.32;5.18;;;20.10;1.00;;;;;;5083724;28;20351;-69
2023/05/17 08:43:38;;;;;;;13.55;5.28;;;19.60;99.90;;;;;;5082485;28;20191;-68
2023/05/17 08:46:04;;;;;;;11.20;5.10;;;19.30;99.90;;;;;;5083359;28;20240;-68
2023/05/17 08:48:30;;;;;;;9.00;4.90;;;19.10;1.00;;;;;;5083944;28;20172;-69
2023/05/17 08:50:56;;;;;;;9.43;4.90;;;18.80;99.90;;;;;;5082706;28;20331;-69
2023/05/17 08:53:23;;;;;;;10.68;5.03;;;18.70;99.90;;;;;;5074654;28;20546;-67
2023/05/17 08:55:50;;;;;;;11.68;5.72;;;18.60;99.90;;;;;;5073780;28;20173;-67
2023/05/17 08:58:20;;;;;;;7.75;4.30;;;18.50;99.90;;;;;;5076091;28;20718;-68
2023/05/17 09:00:48;;;;;;;9.60;4.65;;;18.20;1.00;;;;;;5093383;28;20263;-69
2023/05/17 09:03:17;;;;;;;12.30;4.93;;;18.20;1.00;;;;;;5093588;28;20219;-69
2023/05/17 09:05:46;;;;;;;7.60;4.22;;;18.00;1.00;;;;;;5092414;28;20587;-69
2023/05/17 09:08:12;;;;;;;9.73;4.50;;;18.10;1.00;;;;;;5093371;28;20673;-69
2023/05/17 09:10:41;;;;;;;8.18;4.05;;;19.00;99.90;;;;;;5094181;28;20180;-68
2023/05/17 09:13:10;;;;;;;11.52;3.92;;;20.30;1.00;;;;;;5092212;28;20171;-69
2023/05/17 09:15:36;;;;;;;7.40;3.90;;;21.50;99.90;;;;;;5093252;28;20172;-70
2023/05/17 09:18:02;;;;;;;6.57;3.20;;;21.40;1.00;;;;;;5092587;28;20207;-68
2023/05/17 09:20:35;;;;;;;7.70;3.83;;;22.00;1.00;;;;;;5109269;28;20198;-69
2023/05/17 09:23:03;;;;;;;9.50;3.90;;;22.10;99.90;;;;;;5114045;28;20633;-70
2023/05/17 09:25:30;;;;;;;6.90;3.20;;;22.20;1.00;;;;;;5114413;28;20673;-70
2023/05/17 09:28:08;;;;;;;10.43;3.75;;;23.50;59.60;;;;;;5112424;28;20171;-70
2023/05/17 09:30:38;;;;;;;5.85;3.53;;;23.80;1.00;;;;;;5112748;28;20758;-70
2023/05/17 09:33:06;;;;;;;6.82;3.50;;;22.70;1.00;;;;;;5110395;28;20401;-71
2023/05/17 09:35:32;;;;;;;7.10;3.17;;;22.80;1.00;;;;;;5112404;28;20194;-70
2023/05/17 09:38:10;;;;;;;5.40;2.90;;;23.50;1.00;;;;;;5111934;28;20171;-71
2023/05/17 09:40:47;;;;;;;6.55;3.30;;;23.10;1.00;;;;;;5113422;28;20626;-69
2023/05/17 09:43:13;;;;;;;10.80;3.70;;;22.80;1.00;;;;;;5096569;28;20239;-73
2023/05/17 09:45:39;;;;;;;7.15;3.58;;;23.30;1.00;;;;;;5081488;28;20726;-71
2023/05/17 09:48:15;;;;;;;7.38;3.40;;;23.80;1.00;;;;;;5083236;28;20255;-70
2023/05/17 09:50:45;;;;;;;10.80;3.20;;;22.80;1.00;;;;;;5082284;28;20210;-70
2023/05/17 09:53:38;;;;;;;9.23;3.72;;;22.70;1.00;;;;;;5093066;28;20172;-70
2023/05/17 09:56:05;;;;;;;7.28;3.70;;;23.20;1.00;;;;;;5092716;28;20234;-71
2023/05/17 09:58:32;;;;;;;5.03;3.30;;;23.00;1.00;;;;;;5093093;28;20171;-70
2023/05/17 10:01:02;;;;;;;7.30;3.55;;;22.30;1.00;;;;;;5092208;28;20259;-69
2023/05/17 10:03:36;;;;;;;9.73;3.40;;;21.50;1.00;;;;;;5104755;28;20168;-69
2023/05/17 10:06:08;;;;;;;8.98;3.45;;;21.30;52.30;;;;;;5112911;28;20155;-69
2023/05/17 10:08:37;;;;;;;8.85;3.10;;;21.20;33.60;;;;;;5111587;28;20288;-68
2023/05/17 10:11:08;;;;;;;6.85;2.95;;;21.10;99.90;;;;;;5112767;28;20548;-70
2023/05/17 10:13:59;;;;;;;7.57;3.25;;;20.40;99.90;;;;;;5112787;28;20175;-69
2023/05/17 10:16:25;;;;;;;5.88;2.75;;;20.00;1.00;;;;;;5097724;28;20622;-68
2023/05/17 10:18:52;;;;;;;9.50;3.00;;;20.20;1.00;;;;;;5112027;28;20190;-66
2023/05/17 10:21:18;;;;;;;7.80;3.13;;;19.90;1.00;;;;;;5112976;28;20258;-69
2023/05/17 10:23:46;;;;;;;12.52;4.18;;;20.90;1.00;;;;;;5113040;28;20220;-68
2023/05/17 10:26:13;;;;;;;7.00;2.85;;;20.90;99.90;;;;;;5081634;28;20182;-70
2023/05/17 10:28:39;;;;;;;7.70;3.30;;;20.30;1.00;;;;;;5091680;28;20176;-69
2023/05/17 10:31:06;;;;;;;8.65;3.30;;;20.70;1.00;;;;;;5090446;28;20258;-72
2023/05/17 10:33:32;;;;;;;8.13;3.10;;;20.60;99.90;;;;;;5091034;28;20168;-70
2023/05/17 10:35:58;;;;;;;9.63;3.33;;;21.00;99.90;;;;;;5091612;28;20613;-72
2023/05/17 10:38:26;;;;;;;7.20;3.17;;;21.60;1.00;;;;;;5091998;28;20168;-70
2023/05/17 10:40:53;;;;;;;8.90;3.42;;;21.60;1.00;;;;;;5091012;28;20159;-75
2023/05/17 10:43:20;;;;;;;7.45;3.08;;;21.80;1.00;;;;;;5091476;28;20199;-72
2023/05/17 10:45:46;;;;;;;8.38;3.03;;;21.40;1.00;;;;;;5092078;28;20196;-73
2023/05/17 10:48:14;;;;;;;8.90;3.35;;;21.00;40.10;;;;;;5075608;28;20559;-72
2023/05/17 10:50:41;;;;;;;6.65;2.50;;;20.80;99.90;;;;;;5070218;28;20168;-73
2023/05/17 10:53:12;;;;;;;6.30;2.60;;;20.90;1.00;;;;;;5071150;28;20207;-72
2023/05/17 10:55:42;;;;;;;6.40;2.78;;;20.60;1.00;;;;;;5070758;28;20164;-73
2023/05/17 10:58:19;;;;;;;6.78;2.22;;;20.60;1.00;;;;;;5072189;28;20255;-72
2023/05/17 11:00:50;;;;;;;8.55;3.20;;;20.30;1.00;;;;;;5071558;28;20168;-73
2023/05/17 11:03:37;;;;;;;7.43;3.22;;;20.10;99.90;;;;;;5082645;28;20172;-73
2023/05/17 11:06:09;;;;;;;6.68;3.10;;;20.40;1.00;;;;;;5090230;28;20210;-72
2023/05/17 11:08:35;;;;;;;4.93;2.20;;;21.00;1.00;;;;;;5078152;28;20196;-74
2023/05/17 11:11:11;;;;;;;5.25;2.17;;;20.90;1.00;;;;;;5081471;28;20348;-76
2023/05/17 11:14:02;;;;;;;5.20;2.88;;;19.60;1.00;;;;;;5081060;28;20220;-76
2023/05/17 11:16:35;;;;;;;10.23;2.78;;;19.60;28.60;;;;;;5085808;28;20180;-73
2023/05/17 11:19:10;;;;;;;8.95;2.95;;;18.80;99.90;;;;;;5091784;28;20569;-71
2023/05/17 11:21:45;;;;;;;5.88;2.58;;;19.10;1.00;;;;;;5092115;28;20171;-73
2023/05/17 11:24:18;;;;;;;9.77;2.40;;;19.80;99.90;;;;;;5091854;28;20233;-73
2023/05/17 11:26:45;;;;;;;4.60;1.83;;;20.50;1.00;;;;;;5091852;28;20254;-73
2023/05/17 11:29:11;;;;;;;7.40;2.55;;;20.40;1.00;;;;;;5091532;28;20663;-75
2023/05/17 11:31:50;;;;;;;9.65;2.97;;;19.10;99.90;;;;;;5089837;28;20238;-73
2023/05/17 11:34:17;;;;;;;5.53;2.45;;;20.00;99.90;;;;;;5092056;28;20231;-74
2023/05/17 11:37:09;;;;;;;6.97;2.60;;;20.70;1.00;;;;;;5091824;28;20183;-71
2023/05/17 11:39:35;;;;;;;6.30;2.15;;;21.10;1.00;;;;;;5088907;28;20186;-71
2023/05/17 11:42:01;;;;;;;8.75;3.00;;;20.60;1.00;;;;;;5090469;28;20255;-71
2023/05/17 11:44:33;;;;;;;8.13;2.30;;;19.50;1.00;;;;;;5091483;28;20172;-70
2023/05/17 11:47:10;;;;;;;7.82;2.40;;;19.30;1.00;;;;;;5091696;28;20731;-70
2023/05/17 11:49:39;;;;;;;8.02;2.17;;;19.50;99.90;;;;;;5091276;28;20557;-71
2023/05/17 11:52:05;;;;;;;4.97;2.25;;;20.30;1.00;;;;;;5091951;28;20283;-72
2023/05/17 11:54:31;;;;;;;7.78;2.40;;;20.80;1.00;;;;;;5092365;28;20254;-71
2023/05/17 11:56:59;;;;;;;10.75;2.40;;;21.40;1.00;;;;;;5095152;28;20172;-71
2023/05/17 11:59:24;;;;;;;4.38;2.30;;;21.50;99.90;;;;;;5094866;28;20168;-70
2023/05/17 12:01:51;;;;;;;6.90;2.40;;;21.40;99.90;;;;;;5095630;28;20172;-69
2023/05/17 12:04:27;;;;;;;4.25;1.98;;;21.20;99.90;;;;;;5094691;28;20168;-70
2023/05/17 12:06:57;;;;;;;5.40;2.25;;;20.90;99.90;;;;;;5095447;28;20174;-71
2023/05/17 12:09:23;;;;;;;4.38;2.20;;;20.60;1.00;;;;;;5093452;28;20184;-72
2023/05/17 12:11:48;;;;;;;3.92;2.35;;;20.00;1.00;;;;;;5094657;28;20836;-71
2023/05/17 12:14:19;;;;;;;6.57;2.45;;;20.00;1.00;;;;;;5094932;28;20316;-73
2023/05/17 12:16:49;;;;;;;3.40;1.63;;;20.40;1.00;;;;;;5095109;28;20202;-71
2023/05/17 12:19:19;;;;;;;5.35;2.35;;;20.40;1.00;;;;;;5093655;28;20259;-72
2023/05/17 12:21:45;;;;;;;3.35;2.00;;;19.80;1.00;;;;;;5093265;28;20225;-71
2023/05/17 12:24:12;;;;;;;5.30;1.90;;;19.50;1.00;;;;;;5093005;28;20168;-73
2023/05/17 12:26:47;;;;;;;5.13;2.20;;;20.00;1.00;;;;;;5094429;28;20168;-73
2023/05/17 12:29:17;;;;;;;6.05;2.00;;;20.20;1.00;;;;;;5094194;28;20664;-71
2023/05/17 12:31:47;;;;;;;6.43;2.30;;;20.50;1.00;;;;;;5093161;28;20232;-73
2023/05/17 12:34:15;;;;;;;9.57;2.00;;;20.50;1.00;;;;;;5093964;28;20501;-73
2023/05/17 12:36:42;;;;;;;5.43;1.95;;;20.20;1.00;;;;;;5094874;28;20164;-72
2023/05/17 12:39:10;;;;;;;4.68;2.15;;;19.60;1.00;;;;;;5094491;28;20228;-72
2023/05/17 12:41:39;;;;;;;3.90;2.45;;;19.70;1.00;;;;;;5094561;28;20160;-70
2023/05/17 12:44:07;;;;;;;5.38;2.20;;;20.00;1.00;;;;;;5093862;28;20504;-72
2023/05/17 12:46:33;;;;;;;5.95;2.10;;;20.10;1.00;;;;;;5094232;28;20160;-70
2023/05/17 12:49:07;;;;;;;6.63;3.30;;;19.40;1.00;;;;;;5092479;28;20270;-71